Accueil
METAR-TAF:

METAR-TAF

Aéroports :

Cabo San Lucas, Mexique

latitude: 22-56-51N, longitude: 109-56-13W, altitude: 210 m

Observation

Le bulletin a été fait il y a 5 heures et 48 minutes, à 03:57 UTC
Vent 5 kt de nord-ouest
Température 20°C
Humidité 78%
Pression 1018 hPa
Visibilité: 9.7 km
Ciel clair

METAR: MMSL 180357Z RTD 32005KT 6SM SKC 20/16 A3007

Heure: 02:45 (09:45 UTC)

Prévision

Le bulletin a été fait il y a 4 heures et 57 minutes, à 04:48 UTC
Prévision valable du 18 à 06 UTC au 19 à 06 UTC
Vent 5 kt de nord-ouest
Visibilité: 9.7 km
Nuages épars à une hauteur de 25000 ft
brume sèche
A partir de 18 à 1800 UTC
Vent 12 kt de ouest
Visibilité: 10 km
Nuages fragmentés à une hauteur de 25000 ft
A partir de 19 à 0400 UTC
Vent 5 kt de nord/nord-est
Visibilité: 10 km
Nuages fragmentés à une hauteur de 25000 ft

TAF: MMSL 180448Z 1806/1906 32005KT 6SM HZ SCT250 FM181800 26012KT P6SM BKN250 FM190400 02005KT P6SM BKN250

Observations et prévisions météorologiques de plus de 4000 aéroports (messages METAR et TAF).

Les stations disponibles sont représentées par des disques jaunes et rouges sur la carte.

Passer la souris dessus pour voir le nom de la station.

Cliquer dessus pour voir les observations et prévisions météorologiques.

Pour changer de carte: cliquez sur les boutons verts avec une croix noire pour zoomer, sur le bouton vert avec un tiret pour effectuer un zoom arrière, ou sur les flèches vertes pour les cartes adjacentes.


METAR-TAF: